Time;durP1;ratioP1;P1;durP2;ratioP2;P2;SDS_P1;SDS_P2;PMS_P1;PMS_P2;Temp;Humidity;BMP_temperature;BMP_pressure;BME280_temperature;BME280_humidity;BME280_pressure;Samples;Min_cycle;Max_cycle;Signal;HPM_P1;HPM_P2
2022/09/18 00:00:49;;;;;;;3.20;0.63;;;;;;;9.58;100.00;99042.03;5105094;28;20052;-77
2022/09/18 00:03:17;;;;;;;3.60;1.90;;;;;;;9.57;100.00;99052.03;5110936;28;20048;-78
2022/09/18 00:05:43;;;;;;;4.75;1.27;;;;;;;9.48;100.00;99044.97;5105930;28;20066;-78
2022/09/18 00:08:12;;;;;;;4.45;0.95;;;;;;;9.52;100.00;99046.31;5112747;28;20044;-78
2022/09/18 00:10:41;;;;;;;6.72;1.15;;;;;;;9.54;100.00;99054.25;5090937;28;20039;-77
2022/09/18 00:13:08;;;;;;;8.80;1.25;;;;;;;9.44;100.00;99050.94;5099260;28;20063;-78
2022/09/18 00:15:35;;;;;;;11.10;1.48;;;;;;;9.52;100.00;99050.91;5098212;28;20054;-77
2022/09/18 00:18:01;;;;;;;1.60;0.82;;;;;;;9.48;100.00;99049.56;5107739;28;20044;-78
2022/09/18 00:20:29;;;;;;;2.80;0.82;;;;;;;9.45;100.00;99053.47;5097938;28;20048;-78
2022/09/18 00:22:56;;;;;;;4.85;1.25;;;;;;;9.54;100.00;99060.56;5106372;28;20040;-78
2022/09/18 00:25:22;;;;;;;3.97;1.10;;;;;;;9.53;100.00;99050.72;5123259;27;20478;-78
2022/09/18 00:27:49;;;;;;;8.05;0.95;;;;;;;9.53;100.00;99049.88;5106312;28;20587;-78
2022/09/18 00:30:16;;;;;;;3.35;0.88;;;;;;;9.55;100.00;99054.06;5101104;28;20048;-78
2022/09/18 00:32:57;;;;;;;7.03;0.77;;;;;;;9.52;100.00;99057.16;5101974;27;20050;-79
2022/09/18 00:35:24;;;;;;;2.90;0.75;;;;;;;9.49;100.00;99051.25;5108313;27;20084;-78
2022/09/18 00:37:52;;;;;;;4.90;0.90;;;;;;;9.51;100.00;99052.75;5105805;28;20048;-78
2022/09/18 00:40:22;;;;;;;5.47;0.93;;;;;;;9.40;100.00;99053.19;5109722;27;20044;-78
2022/09/18 00:42:54;;;;;;;3.70;0.80;;;;;;;9.47;100.00;99051.44;5100399;28;20060;-77
2022/09/18 00:45:21;;;;;;;7.03;1.10;;;;;;;9.50;100.00;99051.06;5109973;28;20078;-77
2022/09/18 00:47:50;;;;;;;5.30;1.10;;;;;;;9.48;100.00;99044.13;5101293;27;20039;-76
2022/09/18 00:50:20;;;;;;;3.33;0.85;;;;;;;9.51;100.00;99043.78;5098054;27;20055;-77
2022/09/18 00:52:55;;;;;;;3.53;0.80;;;;;;;9.51;100.00;99047.31;5108265;27;20089;-76
2022/09/18 00:55:29;;;;;;;3.75;0.82;;;;;;;9.50;100.00;99047.50;5112325;27;20055;-76
2022/09/18 00:57:59;;;;;;;5.72;1.20;;;;;;;9.49;100.00;99057.50;5100231;27;20134;-77
2022/09/18 01:00:26;;;;;;;6.25;1.13;;;;;;;9.51;100.00;99051.91;5097038;27;20044;-77
2022/09/18 01:02:53;;;;;;;4.70;0.85;;;;;;;9.50;100.00;99056.50;5114558;27;20517;-78
2022/09/18 01:05:37;;;;;;;2.75;0.90;;;;;;;9.49;100.00;99052.09;5108999;28;20073;-77
2022/09/18 01:08:15;;;;;;;6.97;1.13;;;;;;;9.48;100.00;99054.97;5096430;27;20089;-77
2022/09/18 01:10:57;;;;;;;2.70;0.95;;;;;;;9.50;100.00;99059.22;5093461;28;20070;-78
2022/09/18 01:13:35;;;;;;;1.92;0.70;;;;;;;9.51;100.00;99060.06;5099113;28;20051;-77
2022/09/18 01:16:08;;;;;;;2.67;0.60;;;;;;;9.38;100.00;99049.81;5099686;28;20050;-77
2022/09/18 01:18:44;;;;;;;8.02;0.90;;;;;;;9.39;100.00;99065.03;5113101;28;20048;-77
2022/09/18 01:21:13;;;;;;;4.10;0.70;;;;;;;9.40;100.00;99058.59;5109342;28;20044;-77
2022/09/18 01:24:11;;;;;;;4.13;1.03;;;;;;;9.31;100.00;99056.97;5107166;28;20134;-77
2022/09/18 01:26:53;;;;;;;5.47;1.00;;;;;;;9.37;100.00;99056.25;5099722;28;20174;-77
2022/09/18 01:29:30;;;;;;;4.85;1.05;;;;;;;9.32;100.00;99058.63;5108482;28;20074;-77
2022/09/18 01:32:03;;;;;;;5.70;1.10;;;;;;;9.26;100.00;99056.66;5108967;28;20043;-77
2022/09/18 01:34:35;;;;;;;1.10;0.80;;;;;;;9.37;100.00;99056.25;5108675;28;20074;-76
2022/09/18 01:37:08;;;;;;;2.67;1.10;;;;;;;9.35;100.00;99063.75;5102200;28;20198;-77
2022/09/18 01:39:39;;;;;;;4.80;1.00;;;;;;;9.29;100.00;99053.56;5101380;28;20048;-77
2022/09/18 01:42:08;;;;;;;5.53;1.10;;;;;;;9.36;100.00;99058.13;5105166;28;20046;-77
2022/09/18 01:44:37;;;;;;;3.00;1.08;;;;;;;9.21;100.00;99049.06;5107387;28;20055;-77
2022/09/18 01:47:10;;;;;;;6.55;1.33;;;;;;;9.11;100.00;99043.88;5110943;28;20043;-77
2022/09/18 01:49:41;;;;;;;4.38;1.45;;;;;;;9.28;100.00;99054.63;5109575;28;20403;-77
2022/09/18 01:52:11;;;;;;;6.80;1.17;;;;;;;9.25;100.00;99049.56;5105645;28;20101;-77
2022/09/18 01:54:41;;;;;;;2.35;0.70;;;;;;;9.18;100.00;99052.13;5110793;28;20039;-77
2022/09/18 01:57:14;;;;;;;2.03;0.82;;;;;;;9.29;100.00;99056.28;5103321;28;20554;-77
2022/09/18 01:59:46;;;;;;;6.10;0.93;;;;;;;9.28;100.00;99054.63;5105838;28;20097;-77
2022/09/18 02:02:18;;;;;;;2.75;0.77;;;;;;;9.28;100.00;99047.31;5108776;28;20063;-77
2022/09/18 02:04:50;;;;;;;6.70;0.98;;;;;;;9.26;100.00;99051.22;5107631;27;20075;-77
2022/09/18 02:07:21;;;;;;;3.75;1.00;;;;;;;9.31;100.00;99037.97;5110873;28;20050;-77
2022/09/18 02:09:48;;;;;;;3.72;0.90;;;;;;;9.21;100.00;99036.34;5107096;28;20044;-77
2022/09/18 02:12:19;;;;;;;5.90;1.40;;;;;;;9.21;100.00;99046.34;5108552;28;20051;-77
2022/09/18 02:14:51;;;;;;;5.00;1.15;;;;;;;9.31;100.00;99044.25;5109498;28;20109;-77
2022/09/18 02:17:20;;;;;;;7.40;1.70;;;;;;;9.19;100.00;99032.97;5108056;28;20478;-77
2022/09/18 02:19:54;;;;;;;2.15;0.95;;;;;;;9.23;100.00;99025.31;5104048;28;20395;-77
2022/09/18 02:22:24;;;;;;;3.22;1.00;;;;;;;9.19;100.00;99023.97;5107232;28;20526;-77
2022/09/18 02:24:53;;;;;;;4.10;1.05;;;;;;;9.24;100.00;99027.00;5107557;28;20144;-77
2022/09/18 02:27:24;;;;;;;1.50;1.00;;;;;;;9.23;100.00;99030.75;5110048;28;20444;-77
2022/09/18 02:29:53;;;;;;;4.25;1.20;;;;;;;9.14;100.00;99029.13;5107231;28;20116;-77
2022/09/18 02:32:20;;;;;;;7.53;0.77;;;;;;;9.23;100.00;99035.31;5099197;28;20052;-77
2022/09/18 02:34:46;;;;;;;2.30;0.82;;;;;;;9.09;100.00;99029.63;5110009;28;20058;-77
2022/09/18 02:37:31;;;;;;;5.00;1.08;;;;;;;9.12;100.00;99029.28;5109835;28;20047;-77
2022/09/18 02:40:09;;;;;;;3.85;1.17;;;;;;;9.15;100.00;99036.22;5097531;28;20043;-77
2022/09/18 02:42:43;;;;;;;3.20;1.05;;;;;;;9.20;100.00;99036.53;5105906;28;20052;-77
2022/09/18 02:45:22;;;;;;;7.93;1.55;;;;;;;9.20;100.00;99034.66;5106333;28;20052;-77
2022/09/18 02:48:02;;;;;;;5.10;1.30;;;;;;;9.26;100.00;99045.78;5111156;28;20550;-77
2022/09/18 02:50:37;;;;;;;5.28;1.58;;;;;;;9.19;100.00;99040.25;5111571;27;20055;-77
2022/09/18 02:53:10;;;;;;;1.02;0.88;;;;;;;9.21;100.00;99049.06;5117593;27;20044;-77
2022/09/18 02:55:43;;;;;;;3.35;1.13;;;;;;;9.33;100.00;99049.50;5109870;28;20044;-77
2022/09/18 02:58:15;;;;;;;2.67;0.98;;;;;;;9.35;100.00;99039.31;5106510;28;20043;-78
2022/09/18 03:00:45;;;;;;;4.25;0.90;;;;;;;9.23;100.00;99030.75;5106844;28;20093;-78
2022/09/18 03:03:14;;;;;;;6.78;1.80;;;;;;;9.25;100.00;99036.00;5108414;28;20112;-78
2022/09/18 03:05:40;;;;;;;4.15;1.13;;;;;;;9.16;100.00;99032.47;5107876;28;20493;-78
2022/09/18 03:08:07;;;;;;;6.03;2.00;;;;;;;9.16;100.00;99035.19;5108647;28;20491;-78
2022/09/18 03:10:33;;;;;;;3.72;1.20;;;;;;;9.18;100.00;99027.72;5107468;28;20055;-78
2022/09/18 03:13:00;;;;;;;4.35;1.45;;;;;;;9.16;100.00;99025.19;5101860;28;20083;-78
2022/09/18 03:15:26;;;;;;;6.93;1.17;;;;;;;9.08;100.00;99019.81;5107354;28;20055;-78
2022/09/18 03:17:54;;;;;;;2.08;1.08;;;;;;;9.08;100.00;99024.38;5106249;28;20466;-78
2022/09/18 03:20:20;;;;;;;5.97;1.10;;;;;;;9.12;100.00;99023.00;5101957;28;20487;-78
2022/09/18 03:22:48;;;;;;;4.07;1.02;;;;;;;9.10;100.00;99022.34;5107772;28;20050;-78
2022/09/18 03:25:14;;;;;;;5.53;1.50;;;;;;;9.09;100.00;99020.66;5106351;28;20132;-78
2022/09/18 03:27:41;;;;;;;7.55;1.08;;;;;;;9.02;100.00;99017.81;5109809;28;20444;-78
2022/09/18 03:30:09;;;;;;;3.30;1.20;;;;;;;9.00;100.00;99006.28;5106206;28;20382;-78
2022/09/18 03:32:35;;;;;;;7.43;1.25;;;;;;;9.15;100.00;99017.22;5099988;28;20094;-78
2022/09/18 03:35:03;;;;;;;1.77;1.10;;;;;;;9.16;100.00;98995.34;5110818;28;20044;-78
2022/09/18 03:37:30;;;;;;;7.93;1.30;;;;;;;9.14;100.00;99008.25;5104713;28;20403;-78
2022/09/18 03:39:57;;;;;;;4.22;0.90;;;;;;;9.09;100.00;99020.66;5095521;28;20420;-78
2022/09/18 03:42:23;;;;;;;5.90;1.35;;;;;;;9.19;100.00;99016.69;5109958;28;20051;-78
2022/09/18 03:44:50;;;;;;;1.77;0.70;;;;;;;9.19;100.00;99027.53;5108952;28;20048;-78
2022/09/18 03:47:16;;;;;;;5.10;1.23;;;;;;;9.15;100.00;99019.94;5104698;28;20052;-78
2022/09/18 03:49:43;;;;;;;8.93;1.60;;;;;;;9.25;100.00;99030.56;5108676;28;20120;-78
2022/09/18 03:52:10;;;;;;;7.40;0.90;;;;;;;9.12;100.00;99028.44;5106254;28;20052;-78
2022/09/18 03:54:37;;;;;;;7.40;1.30;;;;;;;9.08;100.00;99027.97;5107571;28;20073;-78
2022/09/18 03:57:03;;;;;;;3.38;1.40;;;;;;;9.08;100.00;99022.53;5101570;28;20506;-78
2022/09/18 03:59:30;;;;;;;8.35;1.20;;;;;;;9.11;100.00;99026.72;5112175;28;20050;-78
2022/09/18 04:01:57;;;;;;;6.05;1.15;;;;;;;9.14;100.00;99035.38;5106844;28;20544;-78
2022/09/18 04:04:23;;;;;;;4.18;1.13;;;;;;;9.10;100.00;99020.47;5113874;28;20047;-78
2022/09/18 04:06:50;;;;;;;6.47;1.20;;;;;;;9.10;100.00;99023.19;5107149;28;20047;-78
2022/09/18 04:09:18;;;;;;;2.85;0.88;;;;;;;9.09;100.00;99026.06;5105721;28;20085;-78
2022/09/18 04:11:44;;;;;;;6.38;1.27;;;;;;;9.15;100.00;99037.06;5106752;28;20060;-78
2022/09/18 04:14:11;;;;;;;6.00;1.30;;;;;;;9.08;100.00;99029.81;5111773;28;20361;-78
2022/09/18 04:16:38;;;;;;;5.05;1.55;;;;;;;9.01;100.00;99025.09;5103497;28;20135;-78
2022/09/18 04:19:04;;;;;;;4.50;1.25;;;;;;;9.04;100.00;99032.88;5109744;28;20134;-78
2022/09/18 04:21:31;;;;;;;4.07;1.20;;;;;;;8.94;100.00;99034.13;5113101;28;20050;-78
2022/09/18 04:23:58;;;;;;;7.68;1.17;;;;;;;8.97;100.00;99039.19;5105871;28;20051;-78
2022/09/18 04:26:26;;;;;;;1.23;1.00;;;;;;;8.99;100.00;99032.56;5112244;28;20051;-78
2022/09/18 04:28:52;;;;;;;4.07;1.10;;;;;;;8.99;100.00;99021.72;5109269;27;20345;-78
2022/09/18 04:31:19;;;;;;;5.60;1.38;;;;;;;8.96;100.00;99030.22;5113884;28;20052;-78
2022/09/18 04:33:45;;;;;;;5.53;1.33;;;;;;;8.89;100.00;99022.97;5105128;28;20044;-78
2022/09/18 04:36:12;;;;;;;4.97;1.20;;;;;;;8.97;100.00;99028.34;5107900;28;20059;-78
2022/09/18 04:38:38;;;;;;;3.78;1.27;;;;;;;9.11;100.00;99035.72;5109651;28;20121;-78
2022/09/18 04:41:05;;;;;;;4.57;1.40;;;;;;;9.02;100.00;99026.78;5113469;28;20063;-78
2022/09/18 04:43:33;;;;;;;3.33;1.20;;;;;;;9.09;100.00;99026.06;5101629;28;21200;-78
2022/09/18 04:45:59;;;;;;;3.25;1.23;;;;;;;9.11;100.00;99032.16;5104293;28;20552;-78
2022/09/18 04:48:26;;;;;;;5.45;1.17;;;;;;;9.14;100.00;99037.25;5104889;28;20052;-78
2022/09/18 04:50:52;;;;;;;0.85;0.82;;;;;;;9.17;100.00;99036.91;5108277;28;20048;-78
2022/09/18 04:53:19;;;;;;;3.58;1.42;;;;;;;9.20;100.00;99039.25;5110087;28;20483;-78
2022/09/18 04:55:47;;;;;;;8.38;1.15;;;;;;;9.17;100.00;99034.19;5112030;28;20055;-78
2022/09/18 04:58:14;;;;;;;3.35;1.00;;;;;;;9.07;100.00;99031.69;5104392;28;20054;-78
2022/09/18 05:00:42;;;;;;;4.13;0.68;;;;;;;9.12;100.00;99033.84;5111100;28;20048;-78
2022/09/18 05:03:08;;;;;;;2.15;1.00;;;;;;;9.16;100.00;99036.03;5107072;28;20704;-78
2022/09/18 05:05:35;;;;;;;4.93;1.00;;;;;;;9.21;100.00;99041.78;5112439;28;20052;-78
2022/09/18 05:08:03;;;;;;;4.82;1.27;;;;;;;9.06;100.00;99032.69;5104044;28;20059;-78
2022/09/18 05:10:29;;;;;;;2.55;1.27;;;;;;;9.12;100.00;99044.69;5113265;28;20043;-78
2022/09/18 05:12:56;;;;;;;7.03;1.40;;;;;;;9.18;100.00;99044.84;5099697;28;20063;-78
2022/09/18 05:15:23;;;;;;;3.22;1.48;;;;;;;9.06;100.00;99040.81;5112834;28;20043;-78
2022/09/18 05:17:58;;;;;;;4.28;1.40;;;;;;;8.98;100.00;99036.28;5102192;28;20059;-78
2022/09/18 05:20:24;;;;;;;5.40;1.48;;;;;;;9.03;100.00;99041.19;5109998;28;20063;-78
2022/09/18 05:22:51;;;;;;;3.30;1.10;;;;;;;9.07;100.00;99045.25;5106306;27;20051;-78
2022/09/18 05:25:19;;;;;;;1.63;1.10;;;;;;;9.04;100.00;99045.59;5108058;28;20448;-78
2022/09/18 05:27:53;;;;;;;1.98;1.10;;;;;;;9.01;100.00;99045.94;5110464;28;20047;-78
2022/09/18 05:30:19;;;;;;;5.57;1.33;;;;;;;9.12;100.00;99059.13;5096855;28;20056;-78
2022/09/18 05:32:55;;;;;;;3.97;1.55;;;;;;;9.09;100.00;99053.19;5104352;28;20135;-78
2022/09/18 05:35:22;;;;;;;2.80;1.20;;;;;;;9.05;100.00;99058.16;5095528;28;20483;-78
2022/09/18 05:37:50;;;;;;;2.13;1.52;;;;;;;9.09;100.00;99064.88;5106404;28;20104;-78
2022/09/18 05:40:16;;;;;;;7.95;1.50;;;;;;;9.11;100.00;99062.00;5110426;28;20131;-78
2022/09/18 05:42:45;;;;;;;6.25;1.98;;;;;;;9.06;100.00;99065.22;5110334;28;20297;-77
2022/09/18 05:45:12;;;;;;;4.30;1.67;;;;;;;9.11;100.00;99060.13;5106973;28;20078;-77
2022/09/18 05:47:38;;;;;;;5.40;1.52;;;;;;;9.03;100.00;99066.47;5107558;28;20052;-77
2022/09/18 05:50:08;;;;;;;4.13;1.65;;;;;;;9.04;100.00;99057.28;5108971;27;20043;-77
2022/09/18 05:52:34;;;;;;;4.97;1.50;;;;;;;9.08;100.00;99059.63;5098208;28;20055;-77
2022/09/18 05:55:01;;;;;;;5.82;1.73;;;;;;;9.04;100.00;99051.84;5104179;28;20289;-78
2022/09/18 05:57:28;;;;;;;10.88;2.00;;;;;;;9.06;100.00;99054.38;5110300;28;20093;-77
2022/09/18 05:59:54;;;;;;;4.15;1.42;;;;;;;8.97;100.00;99055.47;5111086;28;20048;-77
2022/09/18 06:02:21;;;;;;;1.70;1.42;;;;;;;9.00;100.00;99055.09;5109989;28;20066;-77
2022/09/18 06:04:47;;;;;;;4.75;1.73;;;;;;;9.01;100.00;99056.81;5112028;28;20384;-77
2022/09/18 06:07:16;;;;;;;2.85;1.48;;;;;;;9.14;100.00;99067.09;5094410;28;20048;-77
2022/09/18 06:09:42;;;;;;;2.35;1.73;;;;;;;9.06;100.00;99061.69;5109479;28;20051;-77
2022/09/18 06:12:09;;;;;;;3.65;1.80;;;;;;;9.08;100.00;99073.19;5109430;28;20043;-77
2022/09/18 06:14:36;;;;;;;7.72;2.28;;;;;;;9.20;100.00;99069.09;5106548;27;20483;-77
2022/09/18 06:17:03;;;;;;;3.90;1.40;;;;;;;9.18;100.00;99084.66;5110491;28;20054;-77
2022/09/18 06:19:30;;;;;;;2.83;1.63;;;;;;;9.12;100.00;99075.41;5109170;28;20134;-77
2022/09/18 06:21:56;;;;;;;6.68;1.73;;;;;;;9.15;100.00;99080.47;5098383;28;20484;-77
2022/09/18 06:24:24;;;;;;;6.88;1.98;;;;;;;9.14;100.00;99081.47;5092502;27;20052;-77
2022/09/18 06:26:51;;;;;;;4.13;1.60;;;;;;;9.09;100.00;99075.72;5105110;28;20058;-77
2022/09/18 06:29:17;;;;;;;5.80;2.03;;;;;;;9.14;100.00;99080.66;5109886;28;20496;-77
2022/09/18 06:31:44;;;;;;;6.55;1.95;;;;;;;9.23;100.00;99076.00;5102735;28;20054;-77
2022/09/18 06:34:10;;;;;;;4.72;2.33;;;;;;;9.26;100.00;99075.63;5110251;28;20051;-77
2022/09/18 06:36:37;;;;;;;5.65;2.10;;;;;;;9.31;100.00;99078.69;5103929;28;20055;-77
2022/09/18 06:39:03;;;;;;;5.50;2.03;;;;;;;9.21;100.00;99082.47;5104841;28;20410;-77
2022/09/18 06:41:31;;;;;;;6.10;2.25;;;;;;;9.29;100.00;99075.28;5101321;28;20044;-77
2022/09/18 06:43:57;;;;;;;5.40;1.65;;;;;;;9.34;100.00;99076.44;5096395;28;20483;-77
2022/09/18 06:46:24;;;;;;;4.28;1.65;;;;;;;9.49;100.00;99083.81;5099899;28;20047;-77
2022/09/18 06:48:50;;;;;;;3.92;1.95;;;;;;;9.44;100.00;99081.66;5110376;28;20088;-77
2022/09/18 06:51:17;;;;;;;3.97;1.65;;;;;;;9.51;100.00;99089.91;5093603;28;20043;-77
2022/09/18 06:53:43;;;;;;;4.50;1.65;;;;;;;9.50;100.00;99083.63;5109379;28;20054;-77
2022/09/18 06:56:10;;;;;;;5.47;1.88;;;;;;;9.48;100.00;99090.25;5095929;27;20046;-78
2022/09/18 06:58:38;;;;;;;8.07;2.15;;;;;;;9.63;100.00;99095.75;5104704;28;20051;-77
2022/09/18 07:01:04;;;;;;;9.07;2.45;;;;;;;9.74;100.00;99089.94;5098752;28;20047;-77
2022/09/18 07:03:31;;;;;;;4.95;2.08;;;;;;;9.53;100.00;99079.72;5099320;28;20051;-78
2022/09/18 07:05:57;;;;;;;7.05;2.25;;;;;;;9.60;100.00;99088.81;5102464;28;20387;-78
2022/09/18 07:08:24;;;;;;;4.13;1.33;;;;;;;9.62;100.00;99086.78;5104607;28;20385;-78
2022/09/18 07:10:51;;;;;;;5.38;1.52;;;;;;;9.62;100.00;99077.78;5098914;28;20040;-78
2022/09/18 07:13:17;;;;;;;5.78;1.95;;;;;;;9.73;100.00;99074.66;5099345;28;20043;-78
2022/09/18 07:15:47;;;;;;;4.50;1.92;;;;;;;9.77;100.00;99076.00;5107101;28;20047;-78
2022/09/18 07:18:14;;;;;;;12.05;1.83;;;;;;;9.80;100.00;99082.91;5096500;28;21510;-77
2022/09/18 07:20:40;;;;;;;4.53;1.73;;;;;;;9.90;100.00;99086.22;5106439;28;20047;-81
2022/09/18 07:23:07;;;;;;;6.75;1.85;;;;;;;9.86;100.00;99079.47;5110194;28;20051;-78
2022/09/18 07:25:34;;;;;;;9.15;1.67;;;;;;;9.94;100.00;99084.00;5108298;28;20407;-77
2022/09/18 07:28:06;;;;;;;4.00;1.60;;;;;;;10.02;100.00;99094.78;5098625;28;20040;-77
2022/09/18 07:30:33;;;;;;;4.43;1.58;;;;;;;9.86;100.00;99084.88;5101834;28;20078;-78
2022/09/18 07:33:03;;;;;;;4.80;2.03;;;;;;;9.86;100.00;99101.19;5094047;28;20054;-78
2022/09/18 07:35:30;;;;;;;5.65;1.55;;;;;;;9.84;100.00;99085.06;5108412;28;20051;-78
2022/09/18 07:37:59;;;;;;;4.70;1.40;;;;;;;9.86;100.00;99088.47;5110433;28;20051;-78
2022/09/18 07:40:26;;;;;;;1.83;1.48;;;;;;;9.86;100.00;99090.31;5113675;28;20043;-78
2022/09/18 07:42:52;;;;;;;3.47;1.13;;;;;;;9.92;100.00;99098.59;5096881;28;20062;-78
2022/09/18 07:45:19;;;;;;;1.45;1.20;;;;;;;10.05;100.00;99097.13;5111084;28;20066;-78
2022/09/18 07:47:45;;;;;;;3.70;1.35;;;;;;;10.13;100.00;99099.75;5105320;28;20055;-77
2022/09/18 07:50:14;;;;;;;3.67;1.33;;;;;;;10.19;100.00;99090.91;5109606;28;20052;-78
2022/09/18 07:52:48;;;;;;;4.93;1.38;;;;;;;10.19;100.00;99092.75;5108299;28;20059;-77
2022/09/18 07:55:14;;;;;;;4.97;1.40;;;;;;;10.30;100.00;99094.16;5112379;28;20047;-78
2022/09/18 07:57:41;;;;;;;6.00;1.70;;;;;;;10.17;100.00;99100.25;5116817;28;20047;-76
2022/09/18 08:00:09;;;;;;;3.55;1.00;;;;;;;10.12;100.00;99100.81;5096398;28;20047;-76
2022/09/18 08:02:36;;;;;;;4.80;1.13;;;;;;;10.10;100.00;99098.28;5108145;28;20052;-76
2022/09/18 08:05:02;;;;;;;1.08;0.90;;;;;;;10.15;100.00;99113.19;5103437;28;20077;-77
2022/09/18 08:07:30;;;;;;;4.03;1.10;;;;;;;10.07;100.00;99106.78;5112133;28;20057;-77
2022/09/18 08:09:56;;;;;;;2.67;1.20;;;;;;;10.05;100.00;99111.53;5112233;28;20051;-77
2022/09/18 08:12:23;;;;;;;3.67;0.90;;;;;;;10.06;100.00;99104.25;5111770;28;20410;-77
2022/09/18 08:14:50;;;;;;;4.38;1.20;;;;;;;10.16;100.00;99112.13;5104400;28;20513;-78
2022/09/18 08:17:16;;;;;;;4.30;1.30;;;;;;;10.23;100.00;99113.09;5112367;28;20158;-78
2022/09/18 08:19:43;;;;;;;4.40;1.55;;;;;;;10.12;100.00;99100.81;5109205;28;20104;-78
2022/09/18 08:22:09;;;;;;;3.50;1.20;;;;;;;10.14;100.00;99119.63;5103284;28;20039;-78
2022/09/18 08:24:37;;;;;;;3.08;1.00;;;;;;;10.14;100.00;99109.59;5111480;28;20056;-77
2022/09/18 08:27:04;;;;;;;7.30;1.02;;;;;;;10.19;100.00;99115.34;5111325;28;20105;-77
2022/09/18 08:29:31;;;;;;;3.80;0.95;;;;;;;10.36;100.00;99109.78;5109114;28;20339;-77
2022/09/18 08:31:57;;;;;;;2.80;0.93;;;;;;;10.39;100.00;99104.81;5108064;28;20044;-78
2022/09/18 08:34:24;;;;;;;5.30;1.80;;;;;;;10.47;100.00;99117.47;5108733;28;20055;-78
2022/09/18 08:36:50;;;;;;;1.20;0.88;;;;;;;10.42;100.00;99101.72;5099271;28;20047;-78
2022/09/18 08:39:17;;;;;;;2.88;1.00;;;;;;;10.45;100.00;99122.25;5111124;28;20512;-78
2022/09/18 08:41:59;;;;;;;3.40;1.02;;;;;;;10.52;100.00;99119.63;5110984;28;20425;-77
2022/09/18 08:44:29;;;;;;;2.08;1.10;;;;;;;10.57;100.00;99119.94;5103909;28;20052;-78
2022/09/18 08:47:02;;;;;;;4.78;1.73;;;;;;;10.75;100.00;99106.81;5107140;28;20059;-78
2022/09/18 08:49:34;;;;;;;4.30;0.85;;;;;;;11.10;100.00;99114.41;5111907;28;20138;-78
2022/09/18 08:52:06;;;;;;;0.88;0.70;;;;;;;11.26;97.75;99111.47;5110956;28;20097;-78
2022/09/18 08:54:42;;;;;;;3.53;1.15;;;;;;;11.51;98.41;99108.38;5111368;28;20487;-77
2022/09/18 08:57:17;;;;;;;5.72;1.30;;;;;;;11.39;95.63;99099.88;5109699;27;20288;-77
2022/09/18 08:59:47;;;;;;;3.28;0.88;;;;;;;11.23;95.84;99100.09;5105491;28;20047;-78
2022/09/18 09:02:19;;;;;;;;;;;;;;;11.20;99.87;99111.38;5107801;28;20043;-78
2022/09/18 09:04:46;;;;;;;1.95;1.00;;;;;;;11.13;99.30;99111.28;5110659;28;19928;-78
2022/09/18 09:07:27;;;;;;;2.05;1.17;;;;;;;11.11;97.85;99111.50;5110664;27;20577;-77
2022/09/18 09:10:08;;;;;;;2.85;1.08;;;;;;;11.02;97.61;99109.91;5111141;28;20053;-78
2022/09/18 09:12:46;;;;;;;9.15;1.52;;;;;;;10.89;98.10;99117.88;5110302;28;20047;-78
2022/09/18 09:15:26;;;;;;;8.27;2.00;;;;;;;11.06;99.74;99099.47;5103945;28;20043;-78
2022/09/18 09:18:08;;;;;;;2.17;1.10;;;;;;;11.19;96.27;99112.41;5109278;28;20047;-78
2022/09/18 09:20:49;;;;;;;2.90;0.95;;;;;;;11.34;95.42;99110.50;5106952;28;20048;-78
2022/09/18 09:23:19;;;;;;;3.72;1.00;;;;;;;11.47;95.78;99117.97;5110202;28;20086;-78
2022/09/18 09:25:59;;;;;;;8.65;1.45;;;;;;;11.48;94.88;99119.66;5110837;28;20410;-77
2022/09/18 09:28:31;;;;;;;;;;;;;;;11.44;96.06;99113.78;5106126;28;20083;-77
2022/09/18 09:31:01;;;;;;;2.72;1.10;;;;;;;11.26;94.73;99106.03;5089940;28;19920;-77
2022/09/18 09:33:33;;;;;;;2.60;1.10;;;;;;;11.32;94.75;99107.97;5090754;28;20051;-77
2022/09/18 09:36:05;;;;;;;8.32;1.13;;;;;;;11.13;93.76;99112.13;5099026;28;20263;-78
2022/09/18 09:38:40;;;;;;;2.20;1.05;;;;;;;11.15;93.99;99115.53;5110783;28;20105;-77
2022/09/18 09:41:17;;;;;;;6.05;1.23;;;;;;;11.25;93.57;99117.94;5102082;28;20048;-78
2022/09/18 09:43:56;;;;;;;2.55;1.08;;;;;;;11.33;93.76;99117.81;5108964;28;20043;-78
2022/09/18 09:46:41;;;;;;;2.25;1.25;;;;;;;11.50;93.43;99118.44;5100336;28;20052;-78
2022/09/18 09:49:12;;;;;;;3.47;0.90;;;;;;;11.67;93.04;99110.88;5109507;28;20047;-77
2022/09/18 09:51:49;;;;;;;5.82;1.30;;;;;;;11.72;91.92;99104.00;5109731;28;20047;-77
2022/09/18 09:54:15;;;;;;;1.83;1.17;;;;;;;11.81;91.55;99103.66;5108741;28;20134;-78
2022/09/18 09:56:51;;;;;;;1.95;1.00;;;;;;;11.89;90.48;99116.31;5110239;28;20108;-77
2022/09/18 09:59:26;;;;;;;1.05;0.63;;;;;;;11.92;90.23;99109.66;5103654;28;20050;-78
2022/09/18 10:01:59;;;;;;;2.15;0.95;;;;;;;11.98;92.43;99109.75;5106906;28;20083;-77
2022/09/18 10:04:34;;;;;;;8.07;1.13;;;;;;;12.14;88.72;99113.25;5109296;28;20047;-77
2022/09/18 10:07:09;;;;;;;2.47;0.80;;;;;;;12.41;86.87;99103.38;5109965;28;20052;-78
2022/09/18 10:09:43;;;;;;;2.20;0.90;;;;;;;12.61;85.44;99105.41;5110177;28;20051;-77
2022/09/18 10:12:22;;;;;;;2.58;0.90;;;;;;;12.51;85.83;99103.03;5109350;28;20054;-77
2022/09/18 10:14:52;;;;;;;7.07;1.10;;;;;;;12.89;86.13;99108.13;5099186;28;20083;-77
2022/09/18 10:17:21;;;;;;;5.10;1.08;;;;;;;12.83;83.89;99106.19;5109768;28;20067;-77
2022/09/18 10:19:49;;;;;;;6.50;1.08;;;;;;;12.78;84.35;99106.78;5089696;28;20055;-77
2022/09/18 10:22:19;;;;;;;5.93;1.15;;;;;;;13.02;82.56;99096.41;5102237;28;20151;-77
2022/09/18 10:24:53;;;;;;;5.20;1.15;;;;;;;12.87;81.85;99097.41;5097003;28;20044;-77
2022/09/18 10:27:20;;;;;;;2.33;0.80;;;;;;;12.95;80.38;99088.19;5109539;28;20047;-77
2022/09/18 10:29:47;;;;;;;4.20;0.90;;;;;;;12.99;80.53;99094.09;5108559;28;20051;-77
2022/09/18 10:32:32;;;;;;;11.10;1.30;;;;;;;13.25;80.03;99096.09;5108675;28;20044;-77
2022/09/18 10:34:58;;;;;;;3.85;1.35;;;;;;;13.22;78.56;99093.78;5108548;28;20104;-77
2022/09/18 10:37:38;;;;;;;6.30;1.08;;;;;;;13.55;78.01;99101.25;5107241;28;20052;-79
2022/09/18 10:40:07;;;;;;;3.20;0.85;;;;;;;13.55;75.07;99083.00;5099468;28;20581;-78
2022/09/18 10:42:35;;;;;;;4.03;0.98;;;;;;;13.34;75.97;99084.00;5104689;28;20051;-77
2022/09/18 10:45:04;;;;;;;1.73;1.05;;;;;;;13.48;76.51;99079.41;5108376;28;20051;-77
2022/09/18 10:47:34;;;;;;;4.53;1.00;;;;;;;13.54;75.32;99080.47;5109142;28;20216;-78
2022/09/18 10:50:07;;;;;;;2.70;0.70;;;;;;;13.52;74.17;99072.50;5108147;28;20056;-78
2022/09/18 10:52:35;;;;;;;3.50;1.15;;;;;;;13.62;75.16;99072.94;5106627;28;20044;-78
2022/09/18 10:55:11;;;;;;;6.28;1.08;;;;;;;13.69;75.87;99067.47;5108226;28;20470;-78
2022/09/18 10:57:39;;;;;;;3.10;0.80;;;;;;;13.78;72.18;99063.50;5094895;28;20478;-77
2022/09/18 11:00:47;;;;;;;6.13;1.00;;;;;;;13.89;70.57;99056.56;5099587;28;20513;-79
2022/09/18 11:03:37;;;;;;;5.22;0.60;;;;;;;13.99;70.97;99062.44;5107804;28;20162;-79
2022/09/18 11:06:06;;;;;;;3.80;1.02;;;;;;;13.99;72.16;99065.19;5105209;28;20051;-79
2022/09/18 11:08:36;;;;;;;3.75;1.02;;;;;;;13.92;70.71;99066.25;5103277;28;20101;-78
2022/09/18 11:11:06;;;;;;;2.65;0.70;;;;;;;14.04;70.02;99063.72;5105758;28;20126;-78
2022/09/18 11:13:35;;;;;;;2.72;1.10;;;;;;;14.04;70.75;99063.72;5098479;28;20048;-79
2022/09/18 11:16:04;;;;;;;3.70;0.70;;;;;;;14.42;71.08;99055.72;5097647;28;20048;-79
2022/09/18 11:18:34;;;;;;;2.97;0.55;;;;;;;14.56;67.66;99051.06;5093236;28;20071;-79
2022/09/18 11:21:04;;;;;;;3.00;0.75;;;;;;;14.58;66.46;99026.22;5102354;28;20453;-80
2022/09/18 11:23:32;;;;;;;2.33;0.68;;;;;;;14.57;67.13;99030.00;5110152;28;20062;-79
2022/09/18 11:29:29;;;;;;;5.63;0.90;;;;;;;15.40;65.79;99027.38;5397482;22;20060;-75
2022/09/18 11:31:58;;;;;;;1.50;0.40;;;;;;;15.02;63.33;99006.31;5028194;28;20067;-76
2022/09/18 11:34:29;;;;;;;1.23;0.63;;;;;;;15.14;64.98;99027.53;5026482;28;20060;-76
2022/09/18 11:37:00;;;;;;;2.75;0.80;;;;;;;15.06;63.24;99031.34;5023627;28;20511;-75
2022/09/18 11:39:34;;;;;;;2.08;0.50;;;;;;;15.30;62.84;99031.66;5029408;28;20057;-76
2022/09/18 11:42:01;;;;;;;7.00;0.63;;;;;;;15.12;61.43;99008.56;5029466;28;20129;-76
2022/09/18 11:44:31;;;;;;;5.05;0.68;;;;;;;15.06;60.50;99017.66;5028273;28;20088;-75
2022/09/18 11:47:16;;;;;;;5.95;1.13;;;;;;;15.24;58.11;99005.16;5027247;28;20042;-76
2022/09/18 11:49:48;;;;;;;6.03;1.13;;;;;;;15.31;58.67;99003.19;5024446;28;20056;-76